sensor_id;sensor_type;location;lat;lon;timestamp;temperature;humidity
5041;DHT22;2539;52.568;13.364;2023-04-01T00:01:05;10.00;99.90
5041;DHT22;2539;52.568;13.364;2023-04-01T00:03:32;10.00;99.90
5041;DHT22;2539;52.568;13.364;2023-04-01T00:06:00;9.90;99.90
5041;DHT22;2539;52.568;13.364;2023-04-01T00:08:27;9.90;99.90
5041;DHT22;2539;52.568;13.364;2023-04-01T00:10:53;10.00;99.90
5041;DHT22;2539;52.568;13.364;2023-04-01T00:13:20;9.90;99.90
5041;DHT22;2539;52.568;13.364;2023-04-01T00:15:46;9.90;99.90
5041;DHT22;2539;52.568;13.364;2023-04-01T00:18:12;9.90;99.90
5041;DHT22;2539;52.568;13.364;2023-04-01T00:20:46;10.10;99.90
5041;DHT22;2539;52.568;13.364;2023-04-01T00:23:14;9.90;99.90
5041;DHT22;2539;52.568;13.364;2023-04-01T00:25:49;9.90;99.90
5041;DHT22;2539;52.568;13.364;2023-04-01T00:28:18;10.00;99.90
5041;DHT22;2539;52.568;13.364;2023-04-01T00:30:47;9.90;99.90
5041;DHT22;2539;52.568;13.364;2023-04-01T00:33:14;9.90;99.90
5041;DHT22;2539;52.568;13.364;2023-04-01T00:35:41;9.60;99.90
5041;DHT22;2539;52.568;13.364;2023-04-01T00:38:07;9.90;99.90
5041;DHT22;2539;52.568;13.364;2023-04-01T00:40:37;9.90;99.90
5041;DHT22;2539;52.568;13.364;2023-04-01T00:43:13;9.90;99.90
5041;DHT22;2539;52.568;13.364;2023-04-01T00:45:42;9.90;99.90
5041;DHT22;2539;52.568;13.364;2023-04-01T00:48:14;9.90;99.90
5041;DHT22;2539;52.568;13.364;2023-04-01T00:50:43;9.90;99.90
5041;DHT22;2539;52.568;13.364;2023-04-01T00:53:11;9.90;99.90
5041;DHT22;2539;52.568;13.364;2023-04-01T00:55:39;9.90;99.90
5041;DHT22;2539;52.568;13.364;2023-04-01T00:58:10;9.90;99.90
5041;DHT22;2539;52.568;13.364;2023-04-01T01:00:38;9.90;99.90
5041;DHT22;2539;52.568;13.364;2023-04-01T01:03:04;9.90;99.90
5041;DHT22;2539;52.568;13.364;2023-04-01T01:05:50;9.90;99.90
5041;DHT22;2539;52.568;13.364;2023-04-01T01:08:35;9.90;99.90
5041;DHT22;2539;52.568;13.364;2023-04-01T01:11:08;9.90;99.90
5041;DHT22;2539;52.568;13.364;2023-04-01T01:13:55;9.90;99.90
5041;DHT22;2539;52.568;13.364;2023-04-01T01:16:27;9.90;99.90
5041;DHT22;2539;52.568;13.364;2023-04-01T01:19:20;9.90;99.90
5041;DHT22;2539;52.568;13.364;2023-04-01T01:27:34;9.90;99.90
5041;DHT22;2539;52.568;13.364;2023-04-01T01:35:36;9.90;99.90
5041;DHT22;2539;52.568;13.364;2023-04-01T01:38:07;9.90;99.90
5041;DHT22;2539;52.568;13.364;2023-04-01T01:40:36;9.90;99.90
5041;DHT22;2539;52.568;13.364;2023-04-01T01:43:06;9.90;99.90
5041;DHT22;2539;52.568;13.364;2023-04-01T01:45:36;9.90;99.90
5041;DHT22;2539;52.568;13.364;2023-04-01T01:48:06;9.90;99.90
5041;DHT22;2539;52.568;13.364;2023-04-01T01:50:33;9.90;99.90
5041;DHT22;2539;52.568;13.364;2023-04-01T01:53:04;9.90;99.90
5041;DHT22;2539;52.568;13.364;2023-04-01T01:55:36;9.90;99.90
5041;DHT22;2539;52.568;13.364;2023-04-01T01:58:27;9.90;99.90
5041;DHT22;2539;52.568;13.364;2023-04-01T02:01:05;9.90;99.90
5041;DHT22;2539;52.568;13.364;2023-04-01T02:03:35;9.90;99.90
5041;DHT22;2539;52.568;13.364;2023-04-01T02:06:06;9.90;99.90
5041;DHT22;2539;52.568;13.364;2023-04-01T02:08:55;9.90;99.90
5041;DHT22;2539;52.568;13.364;2023-04-01T02:11:57;9.90;99.90
5041;DHT22;2539;52.568;13.364;2023-04-01T02:14:28;9.80;99.90
5041;DHT22;2539;52.568;13.364;2023-04-01T02:16:59;9.80;99.90
5041;DHT22;2539;52.568;13.364;2023-04-01T02:19:32;9.80;99.90
5041;DHT22;2539;52.568;13.364;2023-04-01T02:22:01;9.80;99.90
5041;DHT22;2539;52.568;13.364;2023-04-01T02:24:30;9.80;99.90
5041;DHT22;2539;52.568;13.364;2023-04-01T02:29:24;9.80;99.90
5041;DHT22;2539;52.568;13.364;2023-04-01T02:31:52;9.80;99.90
5041;DHT22;2539;52.568;13.364;2023-04-01T02:34:21;9.70;99.90
5041;DHT22;2539;52.568;13.364;2023-04-01T02:36:48;9.70;99.90
5041;DHT22;2539;52.568;13.364;2023-04-01T02:39:15;9.70;99.90
5041;DHT22;2539;52.568;13.364;2023-04-01T02:41:44;9.70;99.90
5041;DHT22;2539;52.568;13.364;2023-04-01T02:44:12;9.70;99.90
5041;DHT22;2539;52.568;13.364;2023-04-01T02:46:39;9.70;99.90
5041;DHT22;2539;52.568;13.364;2023-04-01T02:49:06;9.80;99.90
5041;DHT22;2539;52.568;13.364;2023-04-01T02:51:33;9.70;99.90
5041;DHT22;2539;52.568;13.364;2023-04-01T02:53:59;9.70;99.90
5041;DHT22;2539;52.568;13.364;2023-04-01T02:56:26;9.70;99.90
5041;DHT22;2539;52.568;13.364;2023-04-01T02:58:53;9.70;99.90
5041;DHT22;2539;52.568;13.364;2023-04-01T03:01:20;9.70;99.90
5041;DHT22;2539;52.568;13.364;2023-04-01T03:06:15;9.70;99.90
5041;DHT22;2539;52.568;13.364;2023-04-01T03:08:41;9.60;99.90
5041;DHT22;2539;52.568;13.364;2023-04-01T03:11:09;9.80;99.90
5041;DHT22;2539;52.568;13.364;2023-04-01T03:13:36;9.70;99.90
5041;DHT22;2539;52.568;13.364;2023-04-01T03:16:03;9.70;99.90
5041;DHT22;2539;52.568;13.364;2023-04-01T03:18:29;9.70;99.90
5041;DHT22;2539;52.568;13.364;2023-04-01T03:23:22;9.70;99.90
5041;DHT22;2539;52.568;13.364;2023-04-01T03:25:50;9.80;99.90
5041;DHT22;2539;52.568;13.364;2023-04-01T03:28:16;9.80;99.90
5041;DHT22;2539;52.568;13.364;2023-04-01T03:30:43;9.80;99.90
5041;DHT22;2539;52.568;13.364;2023-04-01T03:33:09;9.80;99.90
5041;DHT22;2539;52.568;13.364;2023-04-01T03:35:35;9.70;99.90
5041;DHT22;2539;52.568;13.364;2023-04-01T03:38:02;9.80;99.90
5041;DHT22;2539;52.568;13.364;2023-04-01T03:45:21;9.80;99.90
5041;DHT22;2539;52.568;13.364;2023-04-01T03:47:47;9.80;99.90
5041;DHT22;2539;52.568;13.364;2023-04-01T03:50:13;9.70;99.90
5041;DHT22;2539;52.568;13.364;2023-04-01T03:52:38;9.70;99.90
5041;DHT22;2539;52.568;13.364;2023-04-01T03:55:05;9.80;99.90
5041;DHT22;2539;52.568;13.364;2023-04-01T03:57:32;9.80;99.90
5041;DHT22;2539;52.568;13.364;2023-04-01T03:59:58;9.80;99.90
5041;DHT22;2539;52.568;13.364;2023-04-01T04:02:24;9.80;99.90
5041;DHT22;2539;52.568;13.364;2023-04-01T04:04:51;9.80;99.90
5041;DHT22;2539;52.568;13.364;2023-04-01T04:07:16;9.90;99.90
5041;DHT22;2539;52.568;13.364;2023-04-01T04:09:42;9.80;99.90
5041;DHT22;2539;52.568;13.364;2023-04-01T04:12:07;9.90;99.90
5041;DHT22;2539;52.568;13.364;2023-04-01T04:16:59;9.90;99.90
5041;DHT22;2539;52.568;13.364;2023-04-01T04:19:26;9.90;99.90
5041;DHT22;2539;52.568;13.364;2023-04-01T04:24:19;9.90;99.90
5041;DHT22;2539;52.568;13.364;2023-04-01T04:26:45;9.80;99.90
5041;DHT22;2539;52.568;13.364;2023-04-01T04:29:11;9.80;99.90
5041;DHT22;2539;52.568;13.364;2023-04-01T04:31:37;9.80;99.90
5041;DHT22;2539;52.568;13.364;2023-04-01T04:36:29;9.70;99.90
5041;DHT22;2539;52.568;13.364;2023-04-01T04:38:54;9.70;99.90
5041;DHT22;2539;52.568;13.364;2023-04-01T04:43:53;9.70;99.90
5041;DHT22;2539;52.568;13.364;2023-04-01T04:46:20;11.60;99.90
5041;DHT22;2539;52.568;13.364;2023-04-01T04:48:47;9.70;99.90
5041;DHT22;2539;52.568;13.364;2023-04-01T04:51:15;9.80;99.90
5041;DHT22;2539;52.568;13.364;2023-04-01T04:53:41;9.70;99.90
5041;DHT22;2539;52.568;13.364;2023-04-01T04:56:08;9.80;99.90
5041;DHT22;2539;52.568;13.364;2023-04-01T04:58:34;9.80;99.90
5041;DHT22;2539;52.568;13.364;2023-04-01T05:01:12;9.80;99.90
5041;DHT22;2539;52.568;13.364;2023-04-01T05:03:39;9.80;99.90
5041;DHT22;2539;52.568;13.364;2023-04-01T05:06:07;9.80;99.90
5041;DHT22;2539;52.568;13.364;2023-04-01T05:08:34;9.90;99.90
5041;DHT22;2539;52.568;13.364;2023-04-01T05:11:02;9.90;99.90
5041;DHT22;2539;52.568;13.364;2023-04-01T05:13:29;9.90;99.90
5041;DHT22;2539;52.568;13.364;2023-04-01T05:15:55;10.00;99.90
5041;DHT22;2539;52.568;13.364;2023-04-01T05:18:22;11.20;99.90
5041;DHT22;2539;52.568;13.364;2023-04-01T05:20:50;10.00;99.90
5041;DHT22;2539;52.568;13.364;2023-04-01T05:23:17;10.00;99.90
5041;DHT22;2539;52.568;13.364;2023-04-01T05:25:43;10.10;99.90
5041;DHT22;2539;52.568;13.364;2023-04-01T05:28:11;10.10;99.90
5041;DHT22;2539;52.568;13.364;2023-04-01T05:30:42;10.10;99.90
5041;DHT22;2539;52.568;13.364;2023-04-01T05:33:10;10.10;99.90
5041;DHT22;2539;52.568;13.364;2023-04-01T05:35:36;10.10;99.90
5041;DHT22;2539;52.568;13.364;2023-04-01T05:38:03;10.10;99.90
5041;DHT22;2539;52.568;13.364;2023-04-01T05:40:30;10.10;99.90
5041;DHT22;2539;52.568;13.364;2023-04-01T05:42:56;10.10;99.90
5041;DHT22;2539;52.568;13.364;2023-04-01T05:45:23;10.10;99.90
5041;DHT22;2539;52.568;13.364;2023-04-01T05:47:49;10.20;99.90
5041;DHT22;2539;52.568;13.364;2023-04-01T05:50:16;10.10;99.90
5041;DHT22;2539;52.568;13.364;2023-04-01T05:52:42;10.20;99.90
5041;DHT22;2539;52.568;13.364;2023-04-01T05:55:09;10.30;99.90
5041;DHT22;2539;52.568;13.364;2023-04-01T05:57:35;10.30;99.90
5041;DHT22;2539;52.568;13.364;2023-04-01T06:02:28;10.40;99.90
5041;DHT22;2539;52.568;13.364;2023-04-01T06:05:03;10.50;99.90
5041;DHT22;2539;52.568;13.364;2023-04-01T06:07:36;10.50;99.90
5041;DHT22;2539;52.568;13.364;2023-04-01T06:10:14;10.50;99.90
5041;DHT22;2539;52.568;13.364;2023-04-01T06:13:12;10.50;99.90
5041;DHT22;2539;52.568;13.364;2023-04-01T06:16:02;10.50;99.90
5041;DHT22;2539;52.568;13.364;2023-04-01T06:19:09;10.50;99.90
5041;DHT22;2539;52.568;13.364;2023-04-01T06:24:40;10.60;99.90
5041;DHT22;2539;52.568;13.364;2023-04-01T06:27:46;10.60;99.90
5041;DHT22;2539;52.568;13.364;2023-04-01T06:30:24;10.60;99.90
5041;DHT22;2539;52.568;13.364;2023-04-01T06:38:50;10.60;99.90
5041;DHT22;2539;52.568;13.364;2023-04-01T06:41:39;10.60;99.90
5041;DHT22;2539;52.568;13.364;2023-04-01T06:44:27;10.60;99.90
5041;DHT22;2539;52.568;13.364;2023-04-01T06:47:16;10.60;99.90
5041;DHT22;2539;52.568;13.364;2023-04-01T06:50:00;10.60;99.90
5041;DHT22;2539;52.568;13.364;2023-04-01T06:55:55;10.60;99.90
5041;DHT22;2539;52.568;13.364;2023-04-01T06:58:26;10.60;99.90
5041;DHT22;2539;52.568;13.364;2023-04-01T07:01:01;10.60;99.90
5041;DHT22;2539;52.568;13.364;2023-04-01T07:03:34;10.50;99.90
5041;DHT22;2539;52.568;13.364;2023-04-01T07:06:08;10.60;99.90
5041;DHT22;2539;52.568;13.364;2023-04-01T07:08:40;10.60;99.90
5041;DHT22;2539;52.568;13.364;2023-04-01T07:11:23;10.50;99.90
5041;DHT22;2539;52.568;13.364;2023-04-01T07:13:59;10.50;99.90
5041;DHT22;2539;52.568;13.364;2023-04-01T07:16:59;10.60;99.90
5041;DHT22;2539;52.568;13.364;2023-04-01T07:20:02;10.50;99.90
5041;DHT22;2539;52.568;13.364;2023-04-01T07:22:32;10.50;99.90
5041;DHT22;2539;52.568;13.364;2023-04-01T07:25:11;10.60;99.90
5041;DHT22;2539;52.568;13.364;2023-04-01T07:27:37;10.70;99.90
5041;DHT22;2539;52.568;13.364;2023-04-01T07:32:59;10.70;99.90
5041;DHT22;2539;52.568;13.364;2023-04-01T07:35:47;10.70;99.90
5041;DHT22;2539;52.568;13.364;2023-04-01T07:38:23;10.80;99.90
5041;DHT22;2539;52.568;13.364;2023-04-01T07:41:23;10.70;99.90
5041;DHT22;2539;52.568;13.364;2023-04-01T07:47:06;10.70;99.90
5041;DHT22;2539;52.568;13.364;2023-04-01T07:50:01;10.70;99.90
5041;DHT22;2539;52.568;13.364;2023-04-01T07:53:00;10.60;99.90
5041;DHT22;2539;52.568;13.364;2023-04-01T07:55:32;10.40;99.90
5041;DHT22;2539;52.568;13.364;2023-04-01T07:58:03;10.30;99.90
5041;DHT22;2539;52.568;13.364;2023-04-01T08:00:44;10.20;99.90
5041;DHT22;2539;52.568;13.364;2023-04-01T08:06:24;10.00;99.90
5041;DHT22;2539;52.568;13.364;2023-04-01T08:09:34;9.80;99.90
5041;DHT22;2539;52.568;13.364;2023-04-01T08:18:39;9.40;99.90
5041;DHT22;2539;52.568;13.364;2023-04-01T08:21:14;9.30;99.90
5041;DHT22;2539;52.568;13.364;2023-04-01T08:23:48;9.30;99.90
5041;DHT22;2539;52.568;13.364;2023-04-01T08:26:37;10.90;99.90
5041;DHT22;2539;52.568;13.364;2023-04-01T08:29:11;9.30;99.90
5041;DHT22;2539;52.568;13.364;2023-04-01T08:32:06;8.20;99.90
5041;DHT22;2539;52.568;13.364;2023-04-01T08:34:40;9.20;99.90
5041;DHT22;2539;52.568;13.364;2023-04-01T08:37:17;9.20;99.90
5041;DHT22;2539;52.568;13.364;2023-04-01T08:39:55;9.20;99.90
5041;DHT22;2539;52.568;13.364;2023-04-01T08:46:41;9.00;99.90
5041;DHT22;2539;52.568;13.364;2023-04-01T08:48:44;9.10;99.90
5041;DHT22;2539;52.568;13.364;2023-04-01T08:54:06;9.00;99.90
5041;DHT22;2539;52.568;13.364;2023-04-01T08:57:25;8.90;99.90
5041;DHT22;2539;52.568;13.364;2023-04-01T09:05:20;8.80;99.90
5041;DHT22;2539;52.568;13.364;2023-04-01T09:08:00;8.70;99.90
5041;DHT22;2539;52.568;13.364;2023-04-01T09:11:08;8.70;99.90
5041;DHT22;2539;52.568;13.364;2023-04-01T09:17:06;8.70;99.90
5041;DHT22;2539;52.568;13.364;2023-04-01T09:19:33;8.80;99.90
5041;DHT22;2539;52.568;13.364;2023-04-01T09:22:10;8.90;99.90
5041;DHT22;2539;52.568;13.364;2023-04-01T09:27:29;8.80;99.90
5041;DHT22;2539;52.568;13.364;2023-04-01T09:30:32;8.80;99.90
5041;DHT22;2539;52.568;13.364;2023-04-01T09:33:37;8.90;99.90
5041;DHT22;2539;52.568;13.364;2023-04-01T09:36:38;8.70;99.90
5041;DHT22;2539;52.568;13.364;2023-04-01T09:39:36;8.80;99.90
5041;DHT22;2539;52.568;13.364;2023-04-01T09:42:37;8.90;99.90
5041;DHT22;2539;52.568;13.364;2023-04-01T09:45:27;9.00;99.90
5041;DHT22;2539;52.568;13.364;2023-04-01T09:53:48;9.00;99.90
5041;DHT22;2539;52.568;13.364;2023-04-01T09:59:32;8.70;99.90
5041;DHT22;2539;52.568;13.364;2023-04-01T10:02:43;8.90;99.90
5041;DHT22;2539;52.568;13.364;2023-04-01T10:08:44;8.80;99.90
5041;DHT22;2539;52.568;13.364;2023-04-01T10:11:56;8.70;99.90
5041;DHT22;2539;52.568;13.364;2023-04-01T10:15:18;8.70;99.90
5041;DHT22;2539;52.568;13.364;2023-04-01T10:17:43;8.70;99.90
5041;DHT22;2539;52.568;13.364;2023-04-01T10:23:20;8.60;99.90
5041;DHT22;2539;52.568;13.364;2023-04-01T10:28:53;8.50;99.90
5041;DHT22;2539;52.568;13.364;2023-04-01T10:34:25;8.50;99.90
5041;DHT22;2539;52.568;13.364;2023-04-01T10:37:02;8.40;99.90
5041;DHT22;2539;52.568;13.364;2023-04-01T10:44:59;8.30;99.90
5041;DHT22;2539;52.568;13.364;2023-04-01T10:53:03;8.20;99.90
5041;DHT22;2539;52.568;13.364;2023-04-01T10:55:54;8.20;99.90
5041;DHT22;2539;52.568;13.364;2023-04-01T11:04:47;8.30;99.90
5041;DHT22;2539;52.568;13.364;2023-04-01T11:07:57;8.40;99.90
5041;DHT22;2539;52.568;13.364;2023-04-01T11:10:53;8.50;99.90
5041;DHT22;2539;52.568;13.364;2023-04-01T11:28:11;8.20;99.90
5041;DHT22;2539;52.568;13.364;2023-04-01T11:33:57;8.10;99.90
5041;DHT22;2539;52.568;13.364;2023-04-01T11:37:05;8.10;99.90
5041;DHT22;2539;52.568;13.364;2023-04-01T11:40:01;8.20;99.90
5041;DHT22;2539;52.568;13.364;2023-04-01T11:42:42;8.10;99.90
5041;DHT22;2539;52.568;13.364;2023-04-01T11:45:37;8.10;99.90
5041;DHT22;2539;52.568;13.364;2023-04-01T11:50:52;8.00;99.90
5041;DHT22;2539;52.568;13.364;2023-04-01T11:53:42;8.10;99.90
5041;DHT22;2539;52.568;13.364;2023-04-01T11:56:33;8.10;99.90
5041;DHT22;2539;52.568;13.364;2023-04-01T11:59:23;8.10;99.90
5041;DHT22;2539;52.568;13.364;2023-04-01T12:04:41;8.00;99.90
5041;DHT22;2539;52.568;13.364;2023-04-01T12:10:33;7.90;99.90
5041;DHT22;2539;52.568;13.364;2023-04-01T12:13:20;7.80;99.90
5041;DHT22;2539;52.568;13.364;2023-04-01T12:16:20;7.80;99.90
5041;DHT22;2539;52.568;13.364;2023-04-01T12:21:36;7.70;99.90
5041;DHT22;2539;52.568;13.364;2023-04-01T12:24:33;7.60;99.90
5041;DHT22;2539;52.568;13.364;2023-04-01T12:30:09;7.70;99.90
5041;DHT22;2539;52.568;13.364;2023-04-01T12:49:40;7.50;99.90
5041;DHT22;2539;52.568;13.364;2023-04-01T12:52:14;7.40;99.90
5041;DHT22;2539;52.568;13.364;2023-04-01T13:00:27;7.30;99.90
5041;DHT22;2539;52.568;13.364;2023-04-01T13:08:37;7.20;99.90
5041;DHT22;2539;52.568;13.364;2023-04-01T13:11:14;7.30;99.90
5041;DHT22;2539;52.568;13.364;2023-04-01T13:14:14;7.40;99.90
5041;DHT22;2539;52.568;13.364;2023-04-01T13:16:57;7.40;99.90
5041;DHT22;2539;52.568;13.364;2023-04-01T13:22:15;7.40;99.90
5041;DHT22;2539;52.568;13.364;2023-04-01T13:25:10;7.30;99.90
5041;DHT22;2539;52.568;13.364;2023-04-01T13:27:45;7.20;99.90
5041;DHT22;2539;52.568;13.364;2023-04-01T13:30:26;7.10;99.90
5041;DHT22;2539;52.568;13.364;2023-04-01T13:33:29;7.10;99.90
5041;DHT22;2539;52.568;13.364;2023-04-01T13:38:52;7.20;99.90
5041;DHT22;2539;52.568;13.364;2023-04-01T13:42:18;7.20;99.90
5041;DHT22;2539;52.568;13.364;2023-04-01T13:44:33;7.20;99.90
5041;DHT22;2539;52.568;13.364;2023-04-01T13:47:24;7.10;99.90
5041;DHT22;2539;52.568;13.364;2023-04-01T13:55:39;7.10;99.90
5041;DHT22;2539;52.568;13.364;2023-04-01T14:01:13;6.90;99.90
5041;DHT22;2539;52.568;13.364;2023-04-01T14:10:04;6.60;99.90
5041;DHT22;2539;52.568;13.364;2023-04-01T14:27:01;6.70;99.90
5041;DHT22;2539;52.568;13.364;2023-04-01T14:32:27;6.70;99.90
5041;DHT22;2539;52.568;13.364;2023-04-01T14:38:26;6.80;99.90
5041;DHT22;2539;52.568;13.364;2023-04-01T14:41:16;6.80;99.90
5041;DHT22;2539;52.568;13.364;2023-04-01T14:49:22;6.80;99.90
5041;DHT22;2539;52.568;13.364;2023-04-01T14:51:49;6.70;99.90
5041;DHT22;2539;52.568;13.364;2023-04-01T14:54:21;6.60;99.90
5041;DHT22;2539;52.568;13.364;2023-04-01T14:56:51;6.50;99.90
5041;DHT22;2539;52.568;13.364;2023-04-01T15:08:06;6.50;99.90
5041;DHT22;2539;52.568;13.364;2023-04-01T15:16:17;6.50;99.90
5041;DHT22;2539;52.568;13.364;2023-04-01T15:24:24;6.50;99.90
5041;DHT22;2539;52.568;13.364;2023-04-01T15:27:10;6.50;99.90
5041;DHT22;2539;52.568;13.364;2023-04-01T15:29:54;6.50;99.90
5041;DHT22;2539;52.568;13.364;2023-04-01T15:32:51;6.60;99.90
5041;DHT22;2539;52.568;13.364;2023-04-01T15:38:27;6.60;99.90
5041;DHT22;2539;52.568;13.364;2023-04-01T15:41:29;6.50;99.90
5041;DHT22;2539;52.568;13.364;2023-04-01T15:44:00;6.50;99.90
5041;DHT22;2539;52.568;13.364;2023-04-01T15:46:48;6.50;99.90
5041;DHT22;2539;52.568;13.364;2023-04-01T15:49:35;6.50;99.90
5041;DHT22;2539;52.568;13.364;2023-04-01T16:00:31;6.60;99.90
5041;DHT22;2539;52.568;13.364;2023-04-01T16:06:42;6.50;99.90
5041;DHT22;2539;52.568;13.364;2023-04-01T16:09:26;6.40;99.90
5041;DHT22;2539;52.568;13.364;2023-04-01T16:12:19;6.30;99.90
5041;DHT22;2539;52.568;13.364;2023-04-01T16:15:17;6.30;99.90
5041;DHT22;2539;52.568;13.364;2023-04-01T16:21:09;6.30;99.90
5041;DHT22;2539;52.568;13.364;2023-04-01T16:23:50;6.30;99.90
5041;DHT22;2539;52.568;13.364;2023-04-01T16:26:29;6.20;99.90
5041;DHT22;2539;52.568;13.364;2023-04-01T16:29:19;6.10;99.90
5041;DHT22;2539;52.568;13.364;2023-04-01T16:32:03;6.10;99.90
5041;DHT22;2539;52.568;13.364;2023-04-01T16:34:36;6.10;99.90
5041;DHT22;2539;52.568;13.364;2023-04-01T16:40:16;6.10;99.90
5041;DHT22;2539;52.568;13.364;2023-04-01T16:43:04;6.00;99.90
5041;DHT22;2539;52.568;13.364;2023-04-01T16:45:51;6.00;99.90
5041;DHT22;2539;52.568;13.364;2023-04-01T16:48:28;5.90;99.90
5041;DHT22;2539;52.568;13.364;2023-04-01T16:50:59;5.80;99.90
5041;DHT22;2539;52.568;13.364;2023-04-01T16:53:42;5.70;99.90
5041;DHT22;2539;52.568;13.364;2023-04-01T16:56:15;5.70;99.90
5041;DHT22;2539;52.568;13.364;2023-04-01T17:01:47;5.70;99.90
5041;DHT22;2539;52.568;13.364;2023-04-01T17:04:32;5.60;99.90
5041;DHT22;2539;52.568;13.364;2023-04-01T17:10:02;5.60;99.90
5041;DHT22;2539;52.568;13.364;2023-04-01T17:13:06;5.50;99.90
5041;DHT22;2539;52.568;13.364;2023-04-01T17:16:04;5.60;99.90
5041;DHT22;2539;52.568;13.364;2023-04-01T17:18:53;5.50;99.90
5041;DHT22;2539;52.568;13.364;2023-04-01T17:30:10;5.20;99.90
5041;DHT22;2539;52.568;13.364;2023-04-01T17:32:56;5.20;99.90
5041;DHT22;2539;52.568;13.364;2023-04-01T17:35:54;5.20;99.90
5041;DHT22;2539;52.568;13.364;2023-04-01T17:38:54;5.10;99.90
5041;DHT22;2539;52.568;13.364;2023-04-01T17:41:36;5.10;99.90
5041;DHT22;2539;52.568;13.364;2023-04-01T17:52:27;4.90;99.90
5041;DHT22;2539;52.568;13.364;2023-04-01T17:55:27;4.90;99.90
5041;DHT22;2539;52.568;13.364;2023-04-01T17:58:28;4.90;99.90
5041;DHT22;2539;52.568;13.364;2023-04-01T18:01:17;4.80;99.90
5041;DHT22;2539;52.568;13.364;2023-04-01T18:09:37;4.70;99.90
5041;DHT22;2539;52.568;13.364;2023-04-01T18:15:20;4.60;99.90
5041;DHT22;2539;52.568;13.364;2023-04-01T18:18:11;4.60;99.90
5041;DHT22;2539;52.568;13.364;2023-04-01T18:23:31;4.50;99.90
5041;DHT22;2539;52.568;13.364;2023-04-01T18:26:12;4.60;99.90
5041;DHT22;2539;52.568;13.364;2023-04-01T18:28:52;4.60;99.90
5041;DHT22;2539;52.568;13.364;2023-04-01T18:31:25;4.60;99.90
5041;DHT22;2539;52.568;13.364;2023-04-01T18:34:08;4.60;99.90
5041;DHT22;2539;52.568;13.364;2023-04-01T18:36:51;4.50;99.90
5041;DHT22;2539;52.568;13.364;2023-04-01T18:39:31;4.50;99.90
5041;DHT22;2539;52.568;13.364;2023-04-01T18:42:15;4.50;99.90
5041;DHT22;2539;52.568;13.364;2023-04-01T18:47:56;4.50;99.90
5041;DHT22;2539;52.568;13.364;2023-04-01T18:50:37;4.60;99.90
5041;DHT22;2539;52.568;13.364;2023-04-01T18:56:22;4.30;99.90
5041;DHT22;2539;52.568;13.364;2023-04-01T18:58:59;4.30;99.90
5041;DHT22;2539;52.568;13.364;2023-04-01T19:04:23;4.20;99.90
5041;DHT22;2539;52.568;13.364;2023-04-01T19:06:55;4.20;99.90
5041;DHT22;2539;52.568;13.364;2023-04-01T19:09:25;4.20;99.90
5041;DHT22;2539;52.568;13.364;2023-04-01T19:12:14;4.10;99.90
5041;DHT22;2539;52.568;13.364;2023-04-01T19:17:31;4.00;99.90
5041;DHT22;2539;52.568;13.364;2023-04-01T19:23:07;4.00;99.90
5041;DHT22;2539;52.568;13.364;2023-04-01T19:25:51;4.10;99.90
5041;DHT22;2539;52.568;13.364;2023-04-01T19:28:45;4.00;99.90
5041;DHT22;2539;52.568;13.364;2023-04-01T19:31:38;4.00;99.90
5041;DHT22;2539;52.568;13.364;2023-04-01T19:37:02;3.90;99.90
5041;DHT22;2539;52.568;13.364;2023-04-01T19:39:59;3.90;99.90
5041;DHT22;2539;52.568;13.364;2023-04-01T19:51:12;3.80;99.90
5041;DHT22;2539;52.568;13.364;2023-04-01T20:04:32;3.50;99.90
5041;DHT22;2539;52.568;13.364;2023-04-01T20:07:24;3.50;99.90
5041;DHT22;2539;52.568;13.364;2023-04-01T20:09:58;3.50;99.90
5041;DHT22;2539;52.568;13.364;2023-04-01T20:13:00;3.30;99.90
5041;DHT22;2539;52.568;13.364;2023-04-01T20:15:34;3.40;99.90
5041;DHT22;2539;52.568;13.364;2023-04-01T20:20:57;3.40;99.90
5041;DHT22;2539;52.568;13.364;2023-04-01T20:23:49;3.40;99.90
5041;DHT22;2539;52.568;13.364;2023-04-01T20:26:23;3.40;99.90
5041;DHT22;2539;52.568;13.364;2023-04-01T20:29:12;3.30;99.90
5041;DHT22;2539;52.568;13.364;2023-04-01T20:31:42;3.40;99.90
5041;DHT22;2539;52.568;13.364;2023-04-01T20:37:00;3.30;99.90
5041;DHT22;2539;52.568;13.364;2023-04-01T20:42:22;3.30;99.90
5041;DHT22;2539;52.568;13.364;2023-04-01T20:48:26;3.20;99.90
5041;DHT22;2539;52.568;13.364;2023-04-01T20:51:14;3.30;99.90
5041;DHT22;2539;52.568;13.364;2023-04-01T20:54:11;3.30;99.90
5041;DHT22;2539;52.568;13.364;2023-04-01T20:59:52;3.20;99.90
5041;DHT22;2539;52.568;13.364;2023-04-01T21:02:46;3.10;99.90
5041;DHT22;2539;52.568;13.364;2023-04-01T21:05:50;3.10;99.90
5041;DHT22;2539;52.568;13.364;2023-04-01T21:08:49;3.10;99.90
5041;DHT22;2539;52.568;13.364;2023-04-01T21:11:31;3.10;99.90
5041;DHT22;2539;52.568;13.364;2023-04-01T21:14:28;3.10;99.90
5041;DHT22;2539;52.568;13.364;2023-04-01T21:17:10;3.10;99.90
5041;DHT22;2539;52.568;13.364;2023-04-01T21:26:16;3.00;99.90
5041;DHT22;2539;52.568;13.364;2023-04-01T21:31:59;2.90;99.90
5041;DHT22;2539;52.568;13.364;2023-04-01T21:35:00;2.90;99.90
5041;DHT22;2539;52.568;13.364;2023-04-01T21:37:58;2.90;99.90
5041;DHT22;2539;52.568;13.364;2023-04-01T21:46:21;2.90;99.90
5041;DHT22;2539;52.568;13.364;2023-04-01T22:00:17;2.90;99.90
5041;DHT22;2539;52.568;13.364;2023-04-01T22:03:03;2.80;99.90
5041;DHT22;2539;52.568;13.364;2023-04-01T22:08:51;2.90;99.90
5041;DHT22;2539;52.568;13.364;2023-04-01T22:11:15;2.80;99.90
5041;DHT22;2539;52.568;13.364;2023-04-01T22:14:06;2.80;99.90
5041;DHT22;2539;52.568;13.364;2023-04-01T22:19:22;2.80;99.90
5041;DHT22;2539;52.568;13.364;2023-04-01T22:21:58;2.80;99.90
5041;DHT22;2539;52.568;13.364;2023-04-01T22:27:21;2.80;99.90
5041;DHT22;2539;52.568;13.364;2023-04-01T22:32:49;2.80;99.90
5041;DHT22;2539;52.568;13.364;2023-04-01T22:38:23;2.80;99.90
5041;DHT22;2539;52.568;13.364;2023-04-01T22:41:19;2.90;99.90
5041;DHT22;2539;52.568;13.364;2023-04-01T22:43:47;2.90;99.90
5041;DHT22;2539;52.568;13.364;2023-04-01T22:46:21;2.90;99.90
5041;DHT22;2539;52.568;13.364;2023-04-01T22:48:54;2.90;99.90
5041;DHT22;2539;52.568;13.364;2023-04-01T22:51:41;2.90;99.90
5041;DHT22;2539;52.568;13.364;2023-04-01T22:54:30;2.90;99.90
5041;DHT22;2539;52.568;13.364;2023-04-01T22:57:08;2.90;99.90
5041;DHT22;2539;52.568;13.364;2023-04-01T23:02:20;3.00;99.90
5041;DHT22;2539;52.568;13.364;2023-04-01T23:05:00;3.00;99.90
5041;DHT22;2539;52.568;13.364;2023-04-01T23:07:44;3.00;99.90
5041;DHT22;2539;52.568;13.364;2023-04-01T23:10:39;3.00;99.90
5041;DHT22;2539;52.568;13.364;2023-04-01T23:13:16;3.10;99.90
5041;DHT22;2539;52.568;13.364;2023-04-01T23:15:44;3.10;99.90
5041;DHT22;2539;52.568;13.364;2023-04-01T23:18:35;3.10;99.90
5041;DHT22;2539;52.568;13.364;2023-04-01T23:21:17;3.00;99.90
5041;DHT22;2539;52.568;13.364;2023-04-01T23:29:17;3.00;99.90
5041;DHT22;2539;52.568;13.364;2023-04-01T23:31:46;3.00;99.90
5041;DHT22;2539;52.568;13.364;2023-04-01T23:36:44;3.00;99.90
5041;DHT22;2539;52.568;13.364;2023-04-01T23:39:34;3.00;99.90
5041;DHT22;2539;52.568;13.364;2023-04-01T23:42:13;2.90;99.90
5041;DHT22;2539;52.568;13.364;2023-04-01T23:44:42;3.00;99.90
5041;DHT22;2539;52.568;13.364;2023-04-01T23:47:14;2.90;99.90
5041;DHT22;2539;52.568;13.364;2023-04-01T23:49:46;3.00;99.90
5041;DHT22;2539;52.568;13.364;2023-04-01T23:52:30;3.00;99.90
